sensor_id;sensor_type;location;lat;lon;timestamp;temperature;humidity
10336;DHT22;5213;53.548;9.930;2024-03-06T00:02:11;4.70;99.90
10336;DHT22;5213;53.548;9.930;2024-03-06T00:04:37;4.70;99.90
10336;DHT22;5213;53.548;9.930;2024-03-06T00:07:04;5.00;99.90
10336;DHT22;5213;53.548;9.930;2024-03-06T00:09:29;4.70;99.90
10336;DHT22;5213;53.548;9.930;2024-03-06T00:11:56;4.70;99.90
10336;DHT22;5213;53.548;9.930;2024-03-06T00:14:22;4.90;99.90
10336;DHT22;5213;53.548;9.930;2024-03-06T00:16:48;4.70;99.90
10336;DHT22;5213;53.548;9.930;2024-03-06T00:19:18;4.80;99.90
10336;DHT22;5213;53.548;9.930;2024-03-06T00:21:43;4.80;99.90
10336;DHT22;5213;53.548;9.930;2024-03-06T00:24:12;4.70;99.90
10336;DHT22;5213;53.548;9.930;2024-03-06T00:26:43;4.70;99.90
10336;DHT22;5213;53.548;9.930;2024-03-06T00:29:10;5.10;99.90
10336;DHT22;5213;53.548;9.930;2024-03-06T00:31:36;4.70;99.90
10336;DHT22;5213;53.548;9.930;2024-03-06T00:34:01;4.80;99.90
10336;DHT22;5213;53.548;9.930;2024-03-06T00:36:27;4.70;99.90
10336;DHT22;5213;53.548;9.930;2024-03-06T00:38:53;4.80;99.90
10336;DHT22;5213;53.548;9.930;2024-03-06T00:41:18;4.70;99.90
10336;DHT22;5213;53.548;9.930;2024-03-06T00:43:44;4.90;99.90
10336;DHT22;5213;53.548;9.930;2024-03-06T00:46:11;4.90;99.90
10336;DHT22;5213;53.548;9.930;2024-03-06T00:48:36;5.00;99.90
10336;DHT22;5213;53.548;9.930;2024-03-06T00:51:05;4.70;99.90
10336;DHT22;5213;53.548;9.930;2024-03-06T00:53:31;5.00;99.90
10336;DHT22;5213;53.548;9.930;2024-03-06T00:55:57;4.70;99.90
10336;DHT22;5213;53.548;9.930;2024-03-06T00:58:22;4.60;99.90
10336;DHT22;5213;53.548;9.930;2024-03-06T01:00:48;4.70;99.90
10336;DHT22;5213;53.548;9.930;2024-03-06T01:03:14;4.70;99.90
10336;DHT22;5213;53.548;9.930;2024-03-06T01:05:39;4.80;99.90
10336;DHT22;5213;53.548;9.930;2024-03-06T01:08:05;4.70;99.90
10336;DHT22;5213;53.548;9.930;2024-03-06T01:10:31;4.60;99.90
10336;DHT22;5213;53.548;9.930;2024-03-06T01:12:56;4.80;99.90
10336;DHT22;5213;53.548;9.930;2024-03-06T01:15:22;4.80;99.90
10336;DHT22;5213;53.548;9.930;2024-03-06T01:17:48;5.00;99.90
10336;DHT22;5213;53.548;9.930;2024-03-06T01:20:14;4.60;99.90
10336;DHT22;5213;53.548;9.930;2024-03-06T01:22:40;4.60;99.90
10336;DHT22;5213;53.548;9.930;2024-03-06T01:25:06;4.60;99.90
10336;DHT22;5213;53.548;9.930;2024-03-06T01:27:32;4.60;99.90
10336;DHT22;5213;53.548;9.930;2024-03-06T01:29:58;4.80;99.90
10336;DHT22;5213;53.548;9.930;2024-03-06T01:32:23;4.70;99.90
10336;DHT22;5213;53.548;9.930;2024-03-06T01:34:49;4.60;99.90
10336;DHT22;5213;53.548;9.930;2024-03-06T01:37:15;4.70;99.90
10336;DHT22;5213;53.548;9.930;2024-03-06T01:39:41;4.60;99.90
10336;DHT22;5213;53.548;9.930;2024-03-06T01:42:07;4.60;99.90
10336;DHT22;5213;53.548;9.930;2024-03-06T01:44:32;4.60;99.90
10336;DHT22;5213;53.548;9.930;2024-03-06T01:46:58;4.60;99.90
10336;DHT22;5213;53.548;9.930;2024-03-06T01:49:24;4.70;99.90
10336;DHT22;5213;53.548;9.930;2024-03-06T01:51:56;4.50;99.90
10336;DHT22;5213;53.548;9.930;2024-03-06T01:54:24;5.10;99.90
10336;DHT22;5213;53.548;9.930;2024-03-06T01:56:51;5.00;99.90
10336;DHT22;5213;53.548;9.930;2024-03-06T01:59:19;4.50;99.90
10336;DHT22;5213;53.548;9.930;2024-03-06T02:01:46;4.50;99.90
10336;DHT22;5213;53.548;9.930;2024-03-06T02:04:12;4.60;99.90
10336;DHT22;5213;53.548;9.930;2024-03-06T02:06:39;4.60;99.90
10336;DHT22;5213;53.548;9.930;2024-03-06T02:09:05;4.60;99.90
10336;DHT22;5213;53.548;9.930;2024-03-06T02:11:32;4.50;99.90
10336;DHT22;5213;53.548;9.930;2024-03-06T02:13:58;4.60;99.90
10336;DHT22;5213;53.548;9.930;2024-03-06T02:16:24;4.60;99.90
10336;DHT22;5213;53.548;9.930;2024-03-06T02:18:59;4.60;99.90
10336;DHT22;5213;53.548;9.930;2024-03-06T02:21:25;4.50;99.90
10336;DHT22;5213;53.548;9.930;2024-03-06T02:23:51;4.60;99.90
10336;DHT22;5213;53.548;9.930;2024-03-06T02:26:18;4.50;99.90
10336;DHT22;5213;53.548;9.930;2024-03-06T02:28:51;4.60;99.90
10336;DHT22;5213;53.548;9.930;2024-03-06T02:31:17;4.50;99.90
10336;DHT22;5213;53.548;9.930;2024-03-06T02:33:43;4.40;99.90
10336;DHT22;5213;53.548;9.930;2024-03-06T02:36:13;4.40;99.90
10336;DHT22;5213;53.548;9.930;2024-03-06T02:38:39;4.40;99.90
10336;DHT22;5213;53.548;9.930;2024-03-06T02:41:05;4.50;99.90
10336;DHT22;5213;53.548;9.930;2024-03-06T02:43:32;4.60;99.90
10336;DHT22;5213;53.548;9.930;2024-03-06T02:45:59;4.50;99.90
10336;DHT22;5213;53.548;9.930;2024-03-06T02:48:24;4.40;99.90
10336;DHT22;5213;53.548;9.930;2024-03-06T02:50:50;4.50;99.90
10336;DHT22;5213;53.548;9.930;2024-03-06T02:53:15;4.50;99.90
10336;DHT22;5213;53.548;9.930;2024-03-06T02:55:41;4.40;99.90
10336;DHT22;5213;53.548;9.930;2024-03-06T02:58:07;4.10;99.90
10336;DHT22;5213;53.548;9.930;2024-03-06T03:00:32;4.00;99.90
10336;DHT22;5213;53.548;9.930;2024-03-06T03:02:58;3.80;99.90
10336;DHT22;5213;53.548;9.930;2024-03-06T03:05:24;3.80;99.90
10336;DHT22;5213;53.548;9.930;2024-03-06T03:07:50;3.60;99.90
10336;DHT22;5213;53.548;9.930;2024-03-06T03:10:16;3.70;99.90
10336;DHT22;5213;53.548;9.930;2024-03-06T03:12:42;3.70;99.90
10336;DHT22;5213;53.548;9.930;2024-03-06T03:15:08;3.50;99.90
10336;DHT22;5213;53.548;9.930;2024-03-06T03:17:34;3.60;99.90
10336;DHT22;5213;53.548;9.930;2024-03-06T03:20:00;3.40;99.90
10336;DHT22;5213;53.548;9.930;2024-03-06T03:22:34;3.40;99.90
10336;DHT22;5213;53.548;9.930;2024-03-06T03:24:59;3.40;99.90
10336;DHT22;5213;53.548;9.930;2024-03-06T03:27:25;3.40;99.90
10336;DHT22;5213;53.548;9.930;2024-03-06T03:29:50;3.10;1.00
10336;DHT22;5213;53.548;9.930;2024-03-06T03:32:16;3.10;1.00
10336;DHT22;5213;53.548;9.930;2024-03-06T03:34:42;3.00;1.00
10336;DHT22;5213;53.548;9.930;2024-03-06T03:37:07;3.00;1.00
10336;DHT22;5213;53.548;9.930;2024-03-06T03:39:34;3.10;1.00
10336;DHT22;5213;53.548;9.930;2024-03-06T03:41:59;2.90;1.00
10336;DHT22;5213;53.548;9.930;2024-03-06T03:44:25;3.00;1.00
10336;DHT22;5213;53.548;9.930;2024-03-06T03:46:51;3.00;1.00
10336;DHT22;5213;53.548;9.930;2024-03-06T03:49:16;2.90;1.00
10336;DHT22;5213;53.548;9.930;2024-03-06T03:51:42;2.70;1.00
10336;DHT22;5213;53.548;9.930;2024-03-06T03:54:07;2.80;1.00
10336;DHT22;5213;53.548;9.930;2024-03-06T03:56:33;2.70;1.00
10336;DHT22;5213;53.548;9.930;2024-03-06T03:58:59;2.70;1.00
10336;DHT22;5213;53.548;9.930;2024-03-06T04:01:25;2.50;1.00
10336;DHT22;5213;53.548;9.930;2024-03-06T04:03:51;2.60;1.00
10336;DHT22;5213;53.548;9.930;2024-03-06T04:06:17;2.60;1.00
10336;DHT22;5213;53.548;9.930;2024-03-06T04:08:43;2.70;1.00
10336;DHT22;5213;53.548;9.930;2024-03-06T04:11:08;3.20;1.00
10336;DHT22;5213;53.548;9.930;2024-03-06T04:13:38;2.70;1.00
10336;DHT22;5213;53.548;9.930;2024-03-06T04:16:04;3.00;1.00
10336;DHT22;5213;53.548;9.930;2024-03-06T04:18:31;2.80;1.00
10336;DHT22;5213;53.548;9.930;2024-03-06T04:21:06;2.80;1.00
10336;DHT22;5213;53.548;9.930;2024-03-06T04:23:33;2.50;1.00
10336;DHT22;5213;53.548;9.930;2024-03-06T04:25:59;3.20;1.00
10336;DHT22;5213;53.548;9.930;2024-03-06T04:28:25;3.10;1.00
10336;DHT22;5213;53.548;9.930;2024-03-06T04:30:51;2.60;1.00
10336;DHT22;5213;53.548;9.930;2024-03-06T04:33:17;2.50;1.00
10336;DHT22;5213;53.548;9.930;2024-03-06T04:35:42;2.70;1.00
10336;DHT22;5213;53.548;9.930;2024-03-06T04:38:08;2.50;1.00
10336;DHT22;5213;53.548;9.930;2024-03-06T04:40:34;2.70;1.00
10336;DHT22;5213;53.548;9.930;2024-03-06T04:43:00;2.40;1.00
10336;DHT22;5213;53.548;9.930;2024-03-06T04:45:26;2.70;1.00
10336;DHT22;5213;53.548;9.930;2024-03-06T04:47:52;2.40;1.00
10336;DHT22;5213;53.548;9.930;2024-03-06T04:50:17;2.40;1.00
10336;DHT22;5213;53.548;9.930;2024-03-06T04:52:43;2.40;1.00
10336;DHT22;5213;53.548;9.930;2024-03-06T04:55:10;2.40;1.00
10336;DHT22;5213;53.548;9.930;2024-03-06T04:57:37;2.50;1.00
10336;DHT22;5213;53.548;9.930;2024-03-06T05:00:03;2.40;1.00
10336;DHT22;5213;53.548;9.930;2024-03-06T05:02:32;2.50;1.00
10336;DHT22;5213;53.548;9.930;2024-03-06T05:05:03;2.70;1.00
10336;DHT22;5213;53.548;9.930;2024-03-06T05:07:29;2.40;1.00
10336;DHT22;5213;53.548;9.930;2024-03-06T05:09:56;2.30;1.00
10336;DHT22;5213;53.548;9.930;2024-03-06T05:12:23;2.40;1.00
10336;DHT22;5213;53.548;9.930;2024-03-06T05:14:49;2.50;1.00
10336;DHT22;5213;53.548;9.930;2024-03-06T05:17:14;2.40;1.00
10336;DHT22;5213;53.548;9.930;2024-03-06T05:19:40;2.80;1.00
10336;DHT22;5213;53.548;9.930;2024-03-06T05:22:05;2.30;1.00
10336;DHT22;5213;53.548;9.930;2024-03-06T05:24:31;2.20;1.00
10336;DHT22;5213;53.548;9.930;2024-03-06T05:26:57;2.00;1.00
10336;DHT22;5213;53.548;9.930;2024-03-06T05:29:22;2.00;1.00
10336;DHT22;5213;53.548;9.930;2024-03-06T05:31:48;2.10;1.00
10336;DHT22;5213;53.548;9.930;2024-03-06T05:34:14;2.10;1.00
10336;DHT22;5213;53.548;9.930;2024-03-06T05:36:39;2.00;1.00
10336;DHT22;5213;53.548;9.930;2024-03-06T05:39:05;2.00;1.00
10336;DHT22;5213;53.548;9.930;2024-03-06T05:41:35;2.00;1.00
10336;DHT22;5213;53.548;9.930;2024-03-06T05:44:01;2.10;1.00
10336;DHT22;5213;53.548;9.930;2024-03-06T05:46:26;2.10;1.00
10336;DHT22;5213;53.548;9.930;2024-03-06T05:48:52;1.90;1.00
10336;DHT22;5213;53.548;9.930;2024-03-06T05:51:18;1.90;1.00
10336;DHT22;5213;53.548;9.930;2024-03-06T05:53:44;2.00;1.00
10336;DHT22;5213;53.548;9.930;2024-03-06T05:56:09;2.00;1.00
10336;DHT22;5213;53.548;9.930;2024-03-06T05:58:35;2.00;1.00
10336;DHT22;5213;53.548;9.930;2024-03-06T06:01:01;2.10;1.00
10336;DHT22;5213;53.548;9.930;2024-03-06T06:03:29;1.90;1.00
10336;DHT22;5213;53.548;9.930;2024-03-06T06:05:55;2.10;1.00
10336;DHT22;5213;53.548;9.930;2024-03-06T06:08:20;2.00;1.00
10336;DHT22;5213;53.548;9.930;2024-03-06T06:10:46;2.10;1.00
10336;DHT22;5213;53.548;9.930;2024-03-06T06:13:12;2.10;1.00
10336;DHT22;5213;53.548;9.930;2024-03-06T06:15:37;2.00;1.00
10336;DHT22;5213;53.548;9.930;2024-03-06T06:18:03;2.00;1.00
10336;DHT22;5213;53.548;9.930;2024-03-06T06:20:29;2.10;1.00
10336;DHT22;5213;53.548;9.930;2024-03-06T06:22:55;1.90;1.00
10336;DHT22;5213;53.548;9.930;2024-03-06T06:25:22;2.00;1.00
10336;DHT22;5213;53.548;9.930;2024-03-06T06:27:47;2.30;1.00
10336;DHT22;5213;53.548;9.930;2024-03-06T06:30:15;2.10;1.00
10336;DHT22;5213;53.548;9.930;2024-03-06T06:32:41;2.10;1.00
10336;DHT22;5213;53.548;9.930;2024-03-06T06:35:08;2.20;1.00
10336;DHT22;5213;53.548;9.930;2024-03-06T06:37:35;2.40;1.00
10336;DHT22;5213;53.548;9.930;2024-03-06T06:40:00;2.40;1.00
10336;DHT22;5213;53.548;9.930;2024-03-06T06:42:32;2.40;1.00
10336;DHT22;5213;53.548;9.930;2024-03-06T06:44:58;2.60;1.00
10336;DHT22;5213;53.548;9.930;2024-03-06T06:47:24;2.50;1.00
10336;DHT22;5213;53.548;9.930;2024-03-06T06:49:50;2.50;1.00
10336;DHT22;5213;53.548;9.930;2024-03-06T06:52:15;3.10;1.00
10336;DHT22;5213;53.548;9.930;2024-03-06T06:54:41;2.90;1.00
10336;DHT22;5213;53.548;9.930;2024-03-06T06:57:07;2.90;1.00
10336;DHT22;5213;53.548;9.930;2024-03-06T06:59:33;3.10;99.90
10336;DHT22;5213;53.548;9.930;2024-03-06T07:02:00;3.00;99.90
10336;DHT22;5213;53.548;9.930;2024-03-06T07:04:25;3.20;99.90
10336;DHT22;5213;53.548;9.930;2024-03-06T07:06:51;3.20;99.90
10336;DHT22;5213;53.548;9.930;2024-03-06T07:09:17;3.30;99.90
10336;DHT22;5213;53.548;9.930;2024-03-06T07:11:43;3.40;99.90
10336;DHT22;5213;53.548;9.930;2024-03-06T07:14:11;3.60;99.90
10336;DHT22;5213;53.548;9.930;2024-03-06T07:16:44;3.50;99.90
10336;DHT22;5213;53.548;9.930;2024-03-06T07:19:10;3.70;99.90
10336;DHT22;5213;53.548;9.930;2024-03-06T07:21:36;3.70;99.90
10336;DHT22;5213;53.548;9.930;2024-03-06T07:24:03;3.60;99.90
10336;DHT22;5213;53.548;9.930;2024-03-06T07:26:31;3.80;99.90
10336;DHT22;5213;53.548;9.930;2024-03-06T07:28:57;3.90;99.90
10336;DHT22;5213;53.548;9.930;2024-03-06T07:31:23;4.00;99.90
10336;DHT22;5213;53.548;9.930;2024-03-06T07:33:49;4.00;99.90
10336;DHT22;5213;53.548;9.930;2024-03-06T07:36:15;4.10;99.90
10336;DHT22;5213;53.548;9.930;2024-03-06T07:38:42;4.00;99.90
10336;DHT22;5213;53.548;9.930;2024-03-06T07:41:07;4.10;99.90
10336;DHT22;5213;53.548;9.930;2024-03-06T07:43:33;4.60;99.90
10336;DHT22;5213;53.548;9.930;2024-03-06T07:45:59;4.20;99.90
10336;DHT22;5213;53.548;9.930;2024-03-06T07:48:24;4.30;99.90
10336;DHT22;5213;53.548;9.930;2024-03-06T07:50:50;4.30;99.90
10336;DHT22;5213;53.548;9.930;2024-03-06T07:53:15;5.10;99.90
10336;DHT22;5213;53.548;9.930;2024-03-06T07:55:42;4.20;99.90
10336;DHT22;5213;53.548;9.930;2024-03-06T07:58:07;4.30;99.90
10336;DHT22;5213;53.548;9.930;2024-03-06T08:00:35;4.40;99.90
10336;DHT22;5213;53.548;9.930;2024-03-06T08:03:00;4.50;99.90
10336;DHT22;5213;53.548;9.930;2024-03-06T08:05:27;4.70;99.90
10336;DHT22;5213;53.548;9.930;2024-03-06T08:07:53;5.00;99.90
10336;DHT22;5213;53.548;9.930;2024-03-06T08:10:19;4.50;99.90
10336;DHT22;5213;53.548;9.930;2024-03-06T08:12:45;4.60;99.90
10336;DHT22;5213;53.548;9.930;2024-03-06T08:15:14;4.80;99.90
10336;DHT22;5213;53.548;9.930;2024-03-06T08:17:41;4.60;99.90
10336;DHT22;5213;53.548;9.930;2024-03-06T08:20:08;4.60;99.90
10336;DHT22;5213;53.548;9.930;2024-03-06T08:22:41;4.70;99.90
10336;DHT22;5213;53.548;9.930;2024-03-06T08:25:08;4.70;99.90
10336;DHT22;5213;53.548;9.930;2024-03-06T08:27:35;4.90;99.90
10336;DHT22;5213;53.548;9.930;2024-03-06T08:30:01;5.00;99.90
10336;DHT22;5213;53.548;9.930;2024-03-06T08:32:30;4.80;99.90
10336;DHT22;5213;53.548;9.930;2024-03-06T08:34:56;4.90;99.90
10336;DHT22;5213;53.548;9.930;2024-03-06T08:37:21;5.10;99.90
10336;DHT22;5213;53.548;9.930;2024-03-06T08:39:47;4.90;99.90
10336;DHT22;5213;53.548;9.930;2024-03-06T08:42:14;5.20;99.90
10336;DHT22;5213;53.548;9.930;2024-03-06T08:44:44;5.20;99.90
10336;DHT22;5213;53.548;9.930;2024-03-06T08:47:09;5.20;99.90
10336;DHT22;5213;53.548;9.930;2024-03-06T08:49:35;5.30;99.90
10336;DHT22;5213;53.548;9.930;2024-03-06T08:52:00;5.30;99.90
10336;DHT22;5213;53.548;9.930;2024-03-06T08:54:26;5.50;99.90
10336;DHT22;5213;53.548;9.930;2024-03-06T08:56:52;5.50;99.90
10336;DHT22;5213;53.548;9.930;2024-03-06T08:59:23;5.70;99.90
10336;DHT22;5213;53.548;9.930;2024-03-06T09:01:53;5.80;99.90
10336;DHT22;5213;53.548;9.930;2024-03-06T09:04:19;5.80;99.90
10336;DHT22;5213;53.548;9.930;2024-03-06T09:06:45;6.30;99.90
10336;DHT22;5213;53.548;9.930;2024-03-06T09:09:11;6.30;99.90
10336;DHT22;5213;53.548;9.930;2024-03-06T09:11:40;6.50;99.90
10336;DHT22;5213;53.548;9.930;2024-03-06T09:14:06;5.80;99.90
10336;DHT22;5213;53.548;9.930;2024-03-06T09:16:31;5.90;99.90
10336;DHT22;5213;53.548;9.930;2024-03-06T09:18:57;6.10;99.90
10336;DHT22;5213;53.548;9.930;2024-03-06T09:21:23;6.10;99.90
10336;DHT22;5213;53.548;9.930;2024-03-06T09:23:48;6.10;99.90
10336;DHT22;5213;53.548;9.930;2024-03-06T09:26:17;6.30;99.90
10336;DHT22;5213;53.548;9.930;2024-03-06T09:28:42;6.40;99.90
10336;DHT22;5213;53.548;9.930;2024-03-06T09:31:08;6.30;99.90
10336;DHT22;5213;53.548;9.930;2024-03-06T09:33:34;6.00;99.90
10336;DHT22;5213;53.548;9.930;2024-03-06T09:36:00;6.30;99.90
10336;DHT22;5213;53.548;9.930;2024-03-06T09:38:26;6.30;99.90
10336;DHT22;5213;53.548;9.930;2024-03-06T09:40:53;6.00;99.90
10336;DHT22;5213;53.548;9.930;2024-03-06T09:43:20;6.60;99.90
10336;DHT22;5213;53.548;9.930;2024-03-06T09:45:48;6.00;99.90
10336;DHT22;5213;53.548;9.930;2024-03-06T09:48:14;5.90;99.90
10336;DHT22;5213;53.548;9.930;2024-03-06T09:50:43;6.40;99.90
10336;DHT22;5213;53.548;9.930;2024-03-06T09:53:12;6.20;99.90
10336;DHT22;5213;53.548;9.930;2024-03-06T09:55:41;6.20;99.90
10336;DHT22;5213;53.548;9.930;2024-03-06T09:58:07;6.50;99.90
10336;DHT22;5213;53.548;9.930;2024-03-06T10:00:34;6.70;99.90
10336;DHT22;5213;53.548;9.930;2024-03-06T10:03:02;6.60;99.90
10336;DHT22;5213;53.548;9.930;2024-03-06T10:05:31;6.80;99.90
10336;DHT22;5213;53.548;9.930;2024-03-06T10:07:59;7.00;99.90
10336;DHT22;5213;53.548;9.930;2024-03-06T10:10:26;6.90;99.90
10336;DHT22;5213;53.548;9.930;2024-03-06T10:12:52;7.00;99.90
10336;DHT22;5213;53.548;9.930;2024-03-06T10:15:18;7.80;99.90
10336;DHT22;5213;53.548;9.930;2024-03-06T10:17:44;7.80;99.90
10336;DHT22;5213;53.548;9.930;2024-03-06T10:20:18;7.10;99.90
10336;DHT22;5213;53.548;9.930;2024-03-06T10:22:51;7.40;99.90
10336;DHT22;5213;53.548;9.930;2024-03-06T10:25:19;7.60;99.90
10336;DHT22;5213;53.548;9.930;2024-03-06T10:30:31;7.90;90.60
10336;DHT22;5213;53.548;9.930;2024-03-06T10:32:56;7.80;90.70
10336;DHT22;5213;53.548;9.930;2024-03-06T10:35:23;7.80;86.60
10336;DHT22;5213;53.548;9.930;2024-03-06T10:37:52;8.10;86.30
10336;DHT22;5213;53.548;9.930;2024-03-06T10:40:20;7.80;80.00
10336;DHT22;5213;53.548;9.930;2024-03-06T10:42:48;7.80;81.10
10336;DHT22;5213;53.548;9.930;2024-03-06T10:45:14;7.90;76.70
10336;DHT22;5213;53.548;9.930;2024-03-06T10:47:46;7.80;67.70
10336;DHT22;5213;53.548;9.930;2024-03-06T10:50:15;7.60;72.40
10336;DHT22;5213;53.548;9.930;2024-03-06T10:52:40;7.70;78.00
10336;DHT22;5213;53.548;9.930;2024-03-06T10:55:08;7.50;79.20
10336;DHT22;5213;53.548;9.930;2024-03-06T10:57:36;7.90;83.40
10336;DHT22;5213;53.548;9.930;2024-03-06T11:00:02;8.00;76.60
10336;DHT22;5213;53.548;9.930;2024-03-06T11:02:28;7.70;81.00
10336;DHT22;5213;53.548;9.930;2024-03-06T11:04:54;7.70;80.70
10336;DHT22;5213;53.548;9.930;2024-03-06T11:07:20;8.50;83.20
10336;DHT22;5213;53.548;9.930;2024-03-06T11:09:46;7.70;87.30
10336;DHT22;5213;53.548;9.930;2024-03-06T11:12:35;7.90;78.60
10336;DHT22;5213;53.548;9.930;2024-03-06T11:17:36;7.70;76.80
10336;DHT22;5213;53.548;9.930;2024-03-06T11:28:24;7.90;62.80
10336;DHT22;5213;53.548;9.930;2024-03-06T11:31:12;7.90;70.40
10336;DHT22;5213;53.548;9.930;2024-03-06T11:33:46;8.20;64.70
10336;DHT22;5213;53.548;9.930;2024-03-06T11:36:33;8.40;55.90
10336;DHT22;5213;53.548;9.930;2024-03-06T11:39:03;8.50;50.60
10336;DHT22;5213;53.548;9.930;2024-03-06T11:41:51;8.60;44.30
10336;DHT22;5213;53.548;9.930;2024-03-06T11:44:18;8.80;36.40
10336;DHT22;5213;53.548;9.930;2024-03-06T11:46:46;8.80;38.30
10336;DHT22;5213;53.548;9.930;2024-03-06T11:49:16;9.00;33.20
10336;DHT22;5213;53.548;9.930;2024-03-06T11:51:46;8.90;32.60
10336;DHT22;5213;53.548;9.930;2024-03-06T11:54:13;9.00;33.30
10336;DHT22;5213;53.548;9.930;2024-03-06T11:56:44;9.00;23.80
10336;DHT22;5213;53.548;9.930;2024-03-06T11:59:10;9.60;19.20
10336;DHT22;5213;53.548;9.930;2024-03-06T12:01:37;9.50;14.70
10336;DHT22;5213;53.548;9.930;2024-03-06T12:04:03;9.60;17.90
10336;DHT22;5213;53.548;9.930;2024-03-06T12:06:33;10.10;13.10
10336;DHT22;5213;53.548;9.930;2024-03-06T12:08:59;9.90;7.80
10336;DHT22;5213;53.548;9.930;2024-03-06T12:11:25;10.00;8.90
10336;DHT22;5213;53.548;9.930;2024-03-06T12:13:51;10.60;2.90
10336;DHT22;5213;53.548;9.930;2024-03-06T12:16:17;10.00;1.00
10336;DHT22;5213;53.548;9.930;2024-03-06T12:18:43;10.20;4.10
10336;DHT22;5213;53.548;9.930;2024-03-06T12:21:10;10.20;1.00
10336;DHT22;5213;53.548;9.930;2024-03-06T12:23:36;9.90;1.00
10336;DHT22;5213;53.548;9.930;2024-03-06T12:26:08;10.20;1.00
10336;DHT22;5213;53.548;9.930;2024-03-06T12:28:36;10.40;1.00
10336;DHT22;5213;53.548;9.930;2024-03-06T12:31:03;10.20;1.00
10336;DHT22;5213;53.548;9.930;2024-03-06T12:33:29;10.40;1.00
10336;DHT22;5213;53.548;9.930;2024-03-06T12:36:05;10.60;1.00
10336;DHT22;5213;53.548;9.930;2024-03-06T12:38:32;10.60;1.00
10336;DHT22;5213;53.548;9.930;2024-03-06T12:40:59;10.80;1.00
10336;DHT22;5213;53.548;9.930;2024-03-06T12:43:26;11.30;1.00
10336;DHT22;5213;53.548;9.930;2024-03-06T12:45:56;11.30;1.00
10336;DHT22;5213;53.548;9.930;2024-03-06T12:48:23;11.70;1.00
10336;DHT22;5213;53.548;9.930;2024-03-06T12:50:49;11.50;1.00
10336;DHT22;5213;53.548;9.930;2024-03-06T12:53:20;11.70;1.00
10336;DHT22;5213;53.548;9.930;2024-03-06T12:55:46;11.90;1.00
10336;DHT22;5213;53.548;9.930;2024-03-06T12:58:13;11.90;1.00
10336;DHT22;5213;53.548;9.930;2024-03-06T13:00:39;12.10;1.00
10336;DHT22;5213;53.548;9.930;2024-03-06T13:03:05;12.20;1.00
10336;DHT22;5213;53.548;9.930;2024-03-06T13:05:31;12.30;1.00
10336;DHT22;5213;53.548;9.930;2024-03-06T13:07:57;12.40;1.00
10336;DHT22;5213;53.548;9.930;2024-03-06T13:10:25;12.70;1.00
10336;DHT22;5213;53.548;9.930;2024-03-06T13:12:50;12.40;1.00
10336;DHT22;5213;53.548;9.930;2024-03-06T13:15:16;12.20;1.00
10336;DHT22;5213;53.548;9.930;2024-03-06T13:17:41;11.70;1.00
10336;DHT22;5213;53.548;9.930;2024-03-06T13:20:07;11.60;1.00
10336;DHT22;5213;53.548;9.930;2024-03-06T13:22:39;11.40;1.00
10336;DHT22;5213;53.548;9.930;2024-03-06T13:25:06;11.60;1.00
10336;DHT22;5213;53.548;9.930;2024-03-06T13:27:32;11.20;1.00
10336;DHT22;5213;53.548;9.930;2024-03-06T13:29:58;11.30;1.00
10336;DHT22;5213;53.548;9.930;2024-03-06T13:32:24;11.30;1.00
10336;DHT22;5213;53.548;9.930;2024-03-06T13:34:49;10.80;1.00
10336;DHT22;5213;53.548;9.930;2024-03-06T13:37:15;10.30;1.00
10336;DHT22;5213;53.548;9.930;2024-03-06T13:39:41;10.30;1.00
10336;DHT22;5213;53.548;9.930;2024-03-06T13:42:07;10.00;1.00
10336;DHT22;5213;53.548;9.930;2024-03-06T13:44:36;10.30;1.00
10336;DHT22;5213;53.548;9.930;2024-03-06T13:47:03;10.20;1.00
10336;DHT22;5213;53.548;9.930;2024-03-06T13:49:41;10.60;1.00
10336;DHT22;5213;53.548;9.930;2024-03-06T13:52:08;11.00;1.00
10336;DHT22;5213;53.548;9.930;2024-03-06T13:54:42;11.00;1.00
10336;DHT22;5213;53.548;9.930;2024-03-06T13:57:11;10.80;1.00
10336;DHT22;5213;53.548;9.930;2024-03-06T13:59:37;10.70;1.00
10336;DHT22;5213;53.548;9.930;2024-03-06T14:02:03;10.90;1.00
10336;DHT22;5213;53.548;9.930;2024-03-06T14:04:29;10.50;1.00
10336;DHT22;5213;53.548;9.930;2024-03-06T14:06:55;10.80;1.00
10336;DHT22;5213;53.548;9.930;2024-03-06T14:09:22;11.20;1.00
10336;DHT22;5213;53.548;9.930;2024-03-06T14:11:49;10.90;1.00
10336;DHT22;5213;53.548;9.930;2024-03-06T14:14:16;10.60;1.00
10336;DHT22;5213;53.548;9.930;2024-03-06T14:16:41;10.50;1.00
10336;DHT22;5213;53.548;9.930;2024-03-06T14:19:08;10.30;1.00
10336;DHT22;5213;53.548;9.930;2024-03-06T14:21:34;9.80;1.00
10336;DHT22;5213;53.548;9.930;2024-03-06T14:24:01;9.10;1.00
10336;DHT22;5213;53.548;9.930;2024-03-06T14:26:33;9.20;1.00
10336;DHT22;5213;53.548;9.930;2024-03-06T14:29:00;8.90;1.00
10336;DHT22;5213;53.548;9.930;2024-03-06T14:31:25;8.80;1.00
10336;DHT22;5213;53.548;9.930;2024-03-06T14:33:51;8.70;1.00
10336;DHT22;5213;53.548;9.930;2024-03-06T14:36:17;8.70;1.00
10336;DHT22;5213;53.548;9.930;2024-03-06T14:38:43;8.60;2.50
10336;DHT22;5213;53.548;9.930;2024-03-06T14:41:10;8.40;6.00
10336;DHT22;5213;53.548;9.930;2024-03-06T14:43:35;8.10;8.10
10336;DHT22;5213;53.548;9.930;2024-03-06T14:46:04;8.00;11.60
10336;DHT22;5213;53.548;9.930;2024-03-06T14:48:31;8.30;11.60
10336;DHT22;5213;53.548;9.930;2024-03-06T14:50:57;8.10;11.00
10336;DHT22;5213;53.548;9.930;2024-03-06T14:53:22;8.60;10.00
10336;DHT22;5213;53.548;9.930;2024-03-06T14:55:48;8.50;10.40
10336;DHT22;5213;53.548;9.930;2024-03-06T14:58:13;8.30;10.80
10336;DHT22;5213;53.548;9.930;2024-03-06T15:00:39;8.00;12.80
10336;DHT22;5213;53.548;9.930;2024-03-06T15:03:04;8.40;11.10
10336;DHT22;5213;53.548;9.930;2024-03-06T15:05:31;8.20;8.20
10336;DHT22;5213;53.548;9.930;2024-03-06T15:07:57;8.00;6.40
10336;DHT22;5213;53.548;9.930;2024-03-06T15:10:24;8.20;5.60
10336;DHT22;5213;53.548;9.930;2024-03-06T15:12:49;8.40;8.00
10336;DHT22;5213;53.548;9.930;2024-03-06T15:15:15;8.50;5.90
10336;DHT22;5213;53.548;9.930;2024-03-06T15:17:41;8.30;6.80
10336;DHT22;5213;53.548;9.930;2024-03-06T15:20:07;8.30;6.30
10336;DHT22;5213;53.548;9.930;2024-03-06T15:22:35;8.20;6.90
10336;DHT22;5213;53.548;9.930;2024-03-06T15:25:07;8.10;7.40
10336;DHT22;5213;53.548;9.930;2024-03-06T15:27:34;8.20;9.10
10336;DHT22;5213;53.548;9.930;2024-03-06T15:30:01;8.40;6.70
10336;DHT22;5213;53.548;9.930;2024-03-06T15:32:27;8.10;8.60
10336;DHT22;5213;53.548;9.930;2024-03-06T15:34:52;7.90;9.10
10336;DHT22;5213;53.548;9.930;2024-03-06T15:37:22;7.90;13.00
10336;DHT22;5213;53.548;9.930;2024-03-06T15:39:51;7.90;14.80
10336;DHT22;5213;53.548;9.930;2024-03-06T15:42:17;8.10;16.80
10336;DHT22;5213;53.548;9.930;2024-03-06T15:44:42;7.90;19.60
10336;DHT22;5213;53.548;9.930;2024-03-06T15:47:08;7.70;20.10
10336;DHT22;5213;53.548;9.930;2024-03-06T15:49:34;8.00;23.10
10336;DHT22;5213;53.548;9.930;2024-03-06T15:51:59;7.70;23.10
10336;DHT22;5213;53.548;9.930;2024-03-06T15:54:26;7.60;28.20
10336;DHT22;5213;53.548;9.930;2024-03-06T15:56:51;7.50;28.40
10336;DHT22;5213;53.548;9.930;2024-03-06T15:59:17;7.50;26.80
10336;DHT22;5213;53.548;9.930;2024-03-06T16:01:43;7.50;29.10
10336;DHT22;5213;53.548;9.930;2024-03-06T16:04:09;7.80;29.00
10336;DHT22;5213;53.548;9.930;2024-03-06T16:06:35;7.30;29.30
10336;DHT22;5213;53.548;9.930;2024-03-06T16:09:01;7.50;32.50
10336;DHT22;5213;53.548;9.930;2024-03-06T16:11:27;7.10;34.80
10336;DHT22;5213;53.548;9.930;2024-03-06T16:13:55;7.10;39.00
10336;DHT22;5213;53.548;9.930;2024-03-06T16:16:25;7.60;42.00
10336;DHT22;5213;53.548;9.930;2024-03-06T16:18:51;6.90;44.20